Tottington, United Kingdom
Current Conditions -  °F | °C
As of 8:50 AM on Saturday 25 Oct 2014 (Local Time) from EGCC Reporting Station
Drizzle Drizzle  
Wind Chill: 42°   Ceiling: 2500
Heat Index: 48°   Visibility: 6mi
Dew Point: 46°   Wind: 15mph
Humidity: 93%   Direction: 200°SSW
Pressure: 29.94"   Gusts: NA
Location:  53.61°N, 2.34°W
Report Text: EGCC 250750Z 20013KT 9999 4000SW -DZ BKN025 09/08 Q1014 NOSIG
Loading
Personal Weather Stations






























Interactive Weather Map
Tropical Storm Tracking
New forecast layout! Learn more

10-Day Weather Forecast

Advertisements
Track Severe Weather on mobile